createdAt,value
2018-04-09T00:01:50.167Z,25.73
2018-04-09T00:04:20.113Z,23.63
2018-04-09T00:06:52.191Z,24.97
2018-04-09T00:09:26.655Z,24.87
2018-04-09T00:11:55.768Z,25.00
2018-04-09T00:14:23.928Z,24.33
2018-04-09T00:16:55.195Z,27.63
2018-04-09T00:19:27.481Z,25.70
2018-04-09T00:21:57.361Z,26.43
2018-04-09T00:24:25.519Z,26.57
2018-04-09T00:26:53.687Z,25.97
2018-04-09T00:29:21.934Z,25.60
2018-04-09T00:31:51.047Z,26.60
2018-04-09T00:34:19.189Z,28.50
2018-04-09T00:36:47.364Z,29.17
2018-04-09T00:39:15.493Z,27.33
2018-04-09T00:41:43.645Z,27.80
2018-04-09T00:44:11.798Z,33.43
2018-04-09T00:46:39.935Z,27.10
2018-04-09T00:49:08.096Z,27.47
2018-04-09T00:51:37.234Z,26.90
2018-04-09T00:54:05.396Z,29.30
2018-04-09T00:56:34.737Z,28.00
2018-04-09T00:59:03.879Z,26.80
2018-04-09T01:01:32.237Z,29.47
2018-04-09T01:04:01.297Z,26.47
2018-04-09T01:06:29.990Z,28.87
2018-04-09T01:08:58.144Z,28.53
2018-04-09T01:11:26.312Z,28.17
2018-04-09T01:13:54.635Z,29.80
2018-04-09T01:16:23.585Z,30.20
2018-04-09T01:18:52.311Z,30.67
2018-04-09T01:21:21.269Z,29.77
2018-04-09T01:23:49.401Z,30.77
2018-04-09T01:26:18.283Z,31.40
2018-04-09T01:28:47.197Z,32.53
2018-04-09T01:31:15.332Z,28.33
2018-04-09T01:33:44.263Z,32.40
2018-04-09T01:36:12.409Z,30.17
2018-04-09T01:38:40.551Z,31.33
2018-04-09T01:41:08.714Z,33.03
2018-04-09T01:43:36.899Z,32.60
2018-04-09T01:46:05.063Z,31.33
2018-04-09T01:48:33.242Z,30.93
2018-04-09T01:51:01.406Z,30.37
2018-04-09T01:53:29.589Z,32.07
2018-04-09T01:55:57.754Z,30.17
2018-04-09T01:58:25.934Z,33.27
2018-04-09T02:00:55.213Z,30.83
2018-04-09T02:03:23.362Z,32.83
2018-04-09T02:05:51.505Z,31.17
2018-04-09T02:08:20.610Z,32.37
2018-04-09T02:10:48.815Z,36.53
2018-04-09T02:13:16.979Z,31.40
2018-04-09T02:15:45.286Z,31.50
2018-04-09T02:18:13.648Z,30.20
2018-04-09T02:20:41.810Z,29.63
2018-04-09T02:23:09.952Z,31.23
2018-04-09T02:25:38.099Z,33.13
2018-04-09T02:28:07.073Z,34.57
2018-04-09T02:30:35.264Z,32.37
2018-04-09T02:33:03.432Z,36.47
2018-04-09T02:35:31.591Z,32.00
2018-04-09T02:37:59.748Z,31.37
2018-04-09T02:40:27.887Z,33.93
2018-04-09T02:42:56.032Z,34.47
2018-04-09T02:45:24.177Z,36.60
2018-04-09T02:47:52.348Z,33.57
2018-04-09T02:50:20.512Z,32.90
2018-04-09T02:52:48.698Z,32.83
2018-04-09T02:55:16.861Z,37.20
2018-04-09T02:57:44.999Z,31.90
2018-04-09T03:00:13.172Z,35.20
2018-04-09T03:02:41.348Z,34.80
2018-04-09T03:05:09.534Z,36.93
2018-04-09T03:07:37.784Z,41.73
2018-04-09T03:10:05.934Z,36.77
2018-04-09T03:12:34.088Z,35.67
2018-04-09T03:15:02.242Z,36.60
2018-04-09T03:17:30.436Z,39.47
2018-04-09T03:19:58.629Z,35.23
2018-04-09T03:22:26.814Z,38.03
2018-04-09T03:24:54.984Z,43.77
2018-04-09T03:27:23.896Z,35.30
2018-04-09T03:29:52.043Z,34.27
2018-04-09T03:32:20.186Z,39.27
2018-04-09T03:34:48.341Z,36.87
2018-04-09T03:37:16.517Z,37.60
2018-04-09T03:39:44.689Z,35.33
2018-04-09T03:42:12.839Z,35.77
2018-04-09T03:44:41.046Z,45.40
2018-04-09T03:47:09.179Z,39.33
2018-04-09T03:49:37.344Z,35.83
2018-04-09T03:52:05.486Z,37.53
2018-04-09T03:54:33.605Z,38.63
2018-04-09T03:57:01.758Z,40.77
2018-04-09T03:59:29.902Z,37.70
2018-04-09T04:01:58.818Z,38.50
2018-04-09T04:04:26.971Z,36.27
2018-04-09T04:06:55.103Z,40.67
2018-04-09T04:09:23.274Z,39.33
2018-04-09T04:11:51.474Z,40.67
2018-04-09T04:14:19.627Z,42.00
2018-04-09T04:17:05.639Z,43.20
2018-04-09T04:19:51.948Z,42.53
2018-04-09T04:22:20.114Z,42.93
2018-04-09T04:24:49.076Z,43.40
2018-04-09T04:27:17.293Z,40.97
2018-04-09T04:29:46.221Z,39.23
2018-04-09T04:32:14.615Z,41.73
2018-04-09T04:34:42.789Z,43.33
2018-04-09T04:37:10.963Z,39.03
2018-04-09T04:39:39.126Z,45.33
2018-04-09T04:42:07.278Z,41.17
2018-04-09T04:44:36.228Z,43.47
2018-04-09T04:47:04.386Z,40.37
2018-04-09T04:49:32.548Z,44.90
2018-04-09T04:52:00.726Z,38.37
2018-04-09T04:54:28.987Z,40.40
2018-04-09T04:56:57.143Z,43.93
2018-04-09T04:59:25.273Z,40.77
2018-04-09T05:01:53.423Z,42.23
2018-04-09T05:04:21.555Z,39.40
2018-04-09T05:06:50.359Z,43.60
2018-04-09T05:09:18.510Z,39.70
2018-04-09T05:11:46.691Z,42.43
2018-04-09T05:14:14.925Z,42.80
2018-04-09T05:16:43.059Z,43.53
2018-04-09T05:19:11.229Z,44.20
2018-04-09T05:21:39.368Z,52.93
2018-04-09T05:24:07.543Z,47.07
2018-04-09T05:26:35.734Z,56.70
2018-04-09T05:29:03.964Z,47.57
2018-04-09T05:31:32.958Z,45.43
2018-04-09T05:34:01.094Z,41.53
2018-04-09T05:36:29.241Z,41.33
2018-04-09T05:38:57.416Z,43.77
2018-04-09T05:41:25.555Z,49.23
2018-04-09T05:43:53.745Z,56.17
2018-04-09T05:46:21.959Z,51.40
2018-04-09T05:48:50.099Z,55.53
2018-04-09T05:51:18.271Z,48.30
2018-04-09T05:53:46.417Z,44.73
2018-04-09T05:56:15.357Z,58.27
2018-04-09T05:58:43.524Z,43.50
2018-04-09T06:01:11.702Z,57.07
2018-04-09T06:03:39.885Z,54.43
2018-04-09T06:06:08.898Z,50.13
2018-04-09T06:08:37.042Z,55.83
2018-04-09T06:11:05.208Z,51.97
2018-04-09T06:13:33.352Z,63.23
2018-04-09T06:16:02.315Z,45.77
2018-04-09T06:18:30.417Z,46.23
2018-04-09T06:20:58.643Z,46.57
2018-04-09T06:23:26.819Z,45.30
2018-04-09T06:25:54.969Z,50.73
2018-04-09T06:28:23.109Z,50.93
2018-04-09T06:30:51.265Z,50.77
2018-04-09T06:33:20.169Z,54.93
2018-04-09T06:35:49.138Z,45.93
2018-04-09T06:38:18.174Z,50.13
2018-04-09T06:40:46.420Z,40.50
2018-04-09T06:43:15.364Z,47.93
2018-04-09T06:45:43.534Z,44.97
2018-04-09T06:48:11.673Z,42.87
2018-04-09T06:50:40.098Z,42.30
2018-04-09T06:53:08.929Z,42.67
2018-04-09T06:55:37.139Z,41.20
2018-04-09T06:58:05.946Z,40.07
2018-04-09T07:00:34.086Z,45.07
2018-04-09T07:03:02.238Z,41.93
2018-04-09T07:05:31.142Z,40.73
2018-04-09T07:07:59.292Z,43.53
2018-04-09T07:10:28.228Z,43.70
2018-04-09T07:12:56.397Z,49.53
2018-04-09T07:15:24.571Z,46.90
2018-04-09T07:17:53.508Z,45.43
2018-04-09T07:20:21.717Z,45.77
2018-04-09T07:22:49.858Z,44.30
2018-04-09T07:25:18.809Z,49.83
2018-04-09T07:27:46.971Z,41.03
2018-04-09T07:30:15.120Z,46.53
2018-04-09T07:32:43.264Z,48.23
2018-04-09T07:35:12.163Z,39.57
2018-04-09T07:37:41.103Z,45.70
2018-04-09T07:40:09.348Z,42.10
2018-04-09T07:42:37.505Z,43.47
2018-04-09T07:45:06.414Z,42.63
2018-04-09T07:47:34.573Z,41.73
2018-04-09T07:50:02.823Z,42.07
2018-04-09T07:52:31.042Z,43.33
2018-04-09T07:54:59.210Z,42.10
2018-04-09T07:57:27.784Z,51.23
2018-04-09T07:59:56.098Z,42.13
2018-04-09T08:02:25.942Z,43.17
2018-04-09T08:04:54.879Z,51.40
2018-04-09T08:07:23.131Z,46.37
2018-04-09T08:09:52.023Z,42.40
2018-04-09T08:12:20.956Z,46.40
2018-04-09T08:14:49.127Z,42.13
2018-04-09T08:17:17.262Z,58.23
2018-04-09T08:19:46.162Z,42.57
2018-04-09T08:22:14.883Z,59.27
2018-04-09T08:24:43.052Z,43.70
2018-04-09T08:27:11.265Z,49.20
2018-04-09T08:29:40.201Z,49.37
2018-04-09T08:32:08.387Z,48.10
2018-04-09T08:34:36.572Z,48.10
2018-04-09T08:37:05.124Z,44.53
2018-04-09T08:39:33.326Z,42.13
2018-04-09T08:42:01.505Z,43.53
2018-04-09T08:44:29.714Z,44.13
2018-04-09T08:46:58.691Z,46.90
2018-04-09T08:49:26.850Z,49.57
2018-04-09T08:51:54.989Z,51.27
2018-04-09T08:54:23.212Z,51.47
2018-04-09T08:56:52.137Z,50.00
2018-04-09T08:59:20.274Z,50.93
2018-04-09T09:01:48.740Z,43.43
2018-04-09T09:04:16.908Z,46.37
2018-04-09T09:06:45.854Z,47.40
2018-04-09T09:09:14.022Z,47.73
2018-04-09T09:11:42.157Z,45.03
2018-04-09T09:14:11.089Z,45.77
2018-04-09T09:16:40.497Z,39.60
2018-04-09T09:19:08.720Z,50.00
2018-04-09T09:21:36.892Z,47.73
2018-04-09T09:24:05.039Z,44.23
2018-04-09T09:26:33.178Z,42.40
2018-04-09T09:29:01.315Z,39.30
2018-04-09T09:31:29.442Z,47.63
2018-04-09T09:33:57.620Z,49.20
2018-04-09T09:36:25.768Z,45.20
2018-04-09T09:38:53.946Z,38.33
2018-04-09T09:41:22.070Z,43.67
2018-04-09T09:43:50.278Z,41.80
2018-04-09T09:46:18.638Z,43.93
2018-04-09T09:48:47.599Z,44.23
2018-04-09T09:51:15.894Z,39.53
2018-04-09T09:53:44.079Z,42.57
2018-04-09T09:56:12.277Z,40.17
2018-04-09T09:58:40.448Z,44.37
2018-04-09T10:01:09.438Z,39.23
2018-04-09T10:03:37.597Z,42.37
2018-04-09T10:06:06.774Z,46.77
2018-04-09T10:08:34.932Z,45.27
2018-04-09T10:11:03.422Z,47.37
2018-04-09T10:13:31.577Z,45.27
2018-04-09T10:15:59.749Z,42.63
2018-04-09T10:18:27.987Z,36.73
2018-04-09T10:20:56.151Z,44.40
2018-04-09T10:23:25.337Z,37.20
2018-04-09T10:25:54.259Z,39.70
2018-04-09T10:28:22.403Z,39.20
2018-04-09T10:30:51.559Z,40.63
2018-04-09T10:33:20.524Z,50.37
2018-04-09T10:35:48.802Z,45.13
2018-04-09T10:38:17.108Z,45.60
2018-04-09T10:40:45.274Z,50.67
2018-04-09T10:43:13.417Z,41.70
2018-04-09T10:45:41.596Z,40.20
2018-04-09T10:48:09.758Z,41.20
2018-04-09T10:50:37.910Z,45.20
2018-04-09T10:53:06.153Z,41.93
2018-04-09T10:55:35.153Z,42.77
2018-04-09T10:58:03.296Z,42.87
2018-04-09T11:00:31.495Z,45.23
2018-04-09T11:02:59.667Z,46.73
2018-04-09T11:05:28.272Z,39.30
2018-04-09T11:07:56.544Z,45.63
2018-04-09T11:10:24.955Z,45.67
2018-04-09T11:12:53.168Z,45.57
2018-04-09T11:15:21.353Z,47.97
2018-04-09T11:17:49.490Z,51.63
2018-04-09T11:20:18.391Z,44.10
2018-04-09T11:22:46.568Z,37.00
2018-04-09T11:25:14.734Z,47.87
2018-04-09T11:27:42.972Z,42.10
2018-04-09T11:30:11.142Z,47.27
2018-04-09T11:32:39.284Z,43.67
2018-04-09T11:35:08.273Z,47.67
2018-04-09T11:37:37.213Z,42.80
2018-04-09T11:40:05.503Z,51.93
2018-04-09T11:42:33.705Z,41.63
2018-04-09T11:45:02.712Z,39.70
2018-04-09T11:47:30.984Z,41.20
2018-04-09T11:49:59.244Z,44.67
2018-04-09T11:52:27.419Z,46.50
2018-04-09T11:54:55.557Z,42.63
2018-04-09T11:57:23.852Z,45.60
2018-04-09T11:59:52.060Z,51.00
2018-04-09T12:02:20.330Z,43.20
2018-04-09T12:04:48.557Z,41.37
2018-04-09T12:07:16.722Z,39.63
2018-04-09T12:09:44.865Z,40.23
2018-04-09T12:12:13.823Z,43.23
2018-04-09T12:14:42.045Z,47.13
2018-04-09T12:17:10.217Z,48.53
2018-04-09T12:19:38.383Z,42.27
2018-04-09T12:22:07.342Z,42.70
2018-04-09T12:24:35.505Z,44.47
2018-04-09T12:27:03.665Z,43.40
2018-04-09T12:29:31.928Z,39.70
2018-04-09T12:32:00.097Z,40.30
2018-04-09T12:34:28.243Z,41.00
2018-04-09T12:36:57.214Z,43.17
2018-04-09T12:39:26.121Z,39.87
2018-04-09T12:41:54.265Z,43.90
2018-04-09T12:44:22.480Z,41.10
2018-04-09T12:46:50.655Z,44.23
2018-04-09T12:49:18.834Z,40.07
2018-04-09T12:51:47.234Z,40.83
2018-04-09T12:54:15.434Z,45.07
2018-04-09T12:56:43.560Z,43.13
2018-04-09T12:59:11.708Z,40.63
2018-04-09T13:01:40.261Z,41.60
2018-04-09T13:04:08.404Z,38.87
2018-04-09T13:06:36.718Z,43.67
2018-04-09T13:09:04.917Z,50.00
2018-04-09T13:11:33.084Z,36.23
2018-04-09T13:14:01.223Z,38.23
2018-04-09T13:16:29.438Z,35.80
2018-04-09T13:18:57.709Z,40.97
2018-04-09T13:21:25.866Z,44.10
2018-04-09T13:23:54.789Z,41.83
2018-04-09T13:26:23.836Z,42.70
2018-04-09T13:28:52.005Z,43.60
2018-04-09T13:31:20.195Z,41.10
2018-04-09T13:33:49.184Z,35.90
2018-04-09T13:36:18.282Z,38.93
2018-04-09T13:38:47.251Z,38.80
2018-04-09T13:41:15.427Z,42.70
2018-04-09T13:43:43.574Z,39.07
2018-04-09T13:46:11.721Z,38.70
2018-04-09T13:48:39.869Z,40.10
2018-04-09T13:51:08.815Z,41.50
2018-04-09T13:53:36.962Z,40.43
2018-04-09T13:56:05.093Z,43.60
2018-04-09T13:58:33.343Z,44.13
2018-04-09T14:01:01.698Z,40.77
2018-04-09T14:03:30.010Z,41.00
2018-04-09T14:05:58.253Z,50.13
2018-04-09T14:08:26.465Z,40.90
2018-04-09T14:10:55.573Z,53.53
2018-04-09T14:13:23.732Z,42.40
2018-04-09T14:15:51.930Z,45.27
2018-04-09T14:18:20.082Z,42.20
2018-04-09T14:20:48.987Z,39.03
2018-04-09T14:23:17.226Z,37.53
2018-04-09T14:25:45.442Z,33.23
2018-04-09T14:28:13.601Z,37.13
2018-04-09T14:30:42.577Z,31.53
2018-04-09T14:33:10.817Z,39.80
2018-04-09T14:35:38.983Z,35.60
2018-04-09T14:38:07.211Z,38.10
2018-04-09T14:40:36.554Z,42.93
2018-04-09T14:43:05.300Z,40.93
2018-04-09T14:45:35.168Z,38.50
2018-04-09T14:48:03.599Z,42.07
2018-04-09T14:50:32.799Z,40.97
2018-04-09T14:53:01.806Z,42.10
2018-04-09T14:55:29.992Z,39.60
2018-04-09T14:57:58.152Z,36.03
2018-04-09T15:00:26.379Z,36.93
2018-04-09T15:02:54.567Z,34.80
2018-04-09T15:05:22.697Z,33.60
2018-04-09T15:07:50.868Z,35.70
2018-04-09T15:10:19.001Z,31.27
2018-04-09T15:12:47.955Z,27.90
2018-04-09T15:15:16.149Z,25.03
2018-04-09T15:17:45.066Z,29.80
2018-04-09T15:20:13.241Z,24.03
2018-04-09T15:22:41.405Z,30.87
2018-04-09T15:25:09.616Z,26.30
2018-04-09T15:27:37.829Z,28.00
2018-04-09T15:30:05.973Z,25.67
2018-04-09T15:32:34.175Z,25.53
2018-04-09T15:35:02.385Z,25.53
2018-04-09T15:37:30.536Z,26.10
2018-04-09T15:39:59.514Z,28.33
2018-04-09T15:42:27.699Z,27.83
2018-04-09T15:44:56.626Z,28.27
2018-04-09T15:47:25.640Z,26.60
2018-04-09T15:49:53.855Z,28.67
2018-04-09T15:52:22.763Z,24.53
2018-04-09T15:54:51.286Z,27.53
2018-04-09T15:57:19.424Z,31.77
2018-04-09T15:59:47.698Z,36.93
2018-04-09T16:02:16.699Z,49.73
2018-04-09T16:04:45.058Z,45.67
2018-04-09T16:07:13.205Z,51.80
2018-04-09T16:09:41.385Z,53.60
2018-04-09T16:12:13.350Z,57.30
2018-04-09T16:14:42.347Z,51.40
2018-04-09T16:17:11.512Z,57.27
2018-04-09T16:19:39.756Z,53.63
2018-04-09T16:22:07.910Z,59.83
2018-04-09T16:24:36.067Z,56.60
2018-04-09T16:27:04.975Z,57.13
2018-04-09T16:29:33.162Z,58.93
2018-04-09T16:32:02.637Z,62.50
2018-04-09T16:34:34.555Z,66.63
2018-04-09T16:37:02.810Z,57.20
2018-04-09T16:39:31.024Z,65.93
2018-04-09T16:42:00.204Z,59.70
2018-04-09T16:44:28.334Z,58.33
2018-04-09T16:46:57.528Z,58.43
2018-04-09T16:49:25.907Z,58.07
2018-04-09T16:51:54.340Z,62.77
2018-04-09T16:54:22.723Z,63.57
2018-04-09T16:56:50.909Z,59.57
2018-04-09T16:59:20.387Z,69.70
2018-04-09T17:01:48.574Z,58.30
2018-04-09T17:04:17.495Z,57.70
2018-04-09T17:06:45.708Z,60.40
2018-04-09T17:09:13.998Z,59.97
2018-04-09T17:11:42.120Z,55.17
2018-04-09T17:14:10.353Z,67.57
2018-04-09T17:16:38.499Z,55.50
2018-04-09T17:19:06.626Z,51.27
2018-04-09T17:21:34.789Z,61.57
2018-04-09T17:24:02.967Z,51.50
2018-04-09T17:26:31.936Z,52.83
2018-04-09T17:29:00.947Z,57.10
2018-04-09T17:31:29.145Z,53.37
2018-04-09T17:33:57.283Z,52.57
2018-04-09T17:36:26.223Z,51.40
2018-04-09T17:38:54.415Z,49.77
2018-04-09T17:41:22.561Z,49.60
2018-04-09T17:43:50.789Z,50.93
2018-04-09T17:46:18.916Z,54.33
2018-04-09T17:48:47.070Z,53.23
2018-04-09T17:51:15.573Z,48.57
2018-04-09T17:53:44.054Z,56.70
2018-04-09T17:56:12.270Z,49.10
2018-04-09T17:58:42.833Z,59.13
2018-04-09T18:01:11.839Z,46.70
2018-04-09T18:03:40.761Z,61.40
2018-04-09T18:06:08.971Z,57.33
2018-04-09T18:08:37.192Z,55.23
2018-04-09T18:11:05.434Z,55.10
2018-04-09T18:13:33.591Z,55.90
2018-04-09T18:16:01.767Z,52.23
2018-04-09T18:18:30.069Z,51.97
2018-04-09T18:20:58.214Z,54.37
2018-04-09T18:23:27.152Z,51.40
2018-04-09T18:25:55.297Z,56.20
2018-04-09T18:28:23.469Z,54.50
2018-04-09T18:30:51.653Z,53.10
2018-04-09T18:33:19.868Z,52.33
2018-04-09T18:35:48.134Z,57.10
2018-04-09T18:38:17.116Z,56.53
2018-04-09T18:40:45.506Z,55.37
2018-04-09T18:43:13.789Z,50.13
2018-04-09T18:45:42.766Z,55.47
2018-04-09T18:48:11.124Z,55.53
2018-04-09T18:50:40.057Z,56.57
2018-04-09T18:53:08.337Z,62.87
2018-04-09T18:55:36.497Z,55.23
2018-04-09T18:58:04.677Z,56.27
2018-04-09T19:00:33.645Z,63.53
2018-04-09T19:03:01.845Z,63.00
2018-04-09T19:05:29.977Z,63.27
2018-04-09T19:07:59.056Z,60.67
2018-04-09T19:10:27.238Z,66.07
2018-04-09T19:12:56.271Z,61.00
2018-04-09T19:15:25.360Z,60.10
2018-04-09T19:17:58.447Z,68.63
2018-04-09T19:20:26.670Z,66.33
2018-04-09T19:22:56.939Z,67.10
2018-04-09T19:25:25.220Z,66.30
2018-04-09T19:27:53.585Z,67.90
2018-04-09T19:30:21.866Z,70.53
2018-04-09T19:32:50.302Z,63.23
2018-04-09T19:35:18.728Z,74.90
2018-04-09T19:37:53.270Z,64.87
2018-04-09T19:40:27.060Z,63.90
2018-04-09T19:42:55.583Z,70.83
2018-04-09T19:45:23.954Z,69.00
2018-04-09T19:47:55.275Z,66.30
2018-04-09T19:50:23.590Z,70.07
2018-04-09T19:52:51.950Z,67.83
2018-04-09T19:55:20.260Z,70.90
2018-04-09T19:57:48.475Z,76.83
2018-04-09T20:00:16.671Z,65.60
2018-04-09T20:02:45.620Z,66.60
2018-04-09T20:05:13.861Z,69.03
2018-04-09T20:07:42.254Z,69.60
2018-04-09T20:10:10.574Z,68.43
2018-04-09T20:12:38.742Z,67.53
2018-04-09T20:15:06.942Z,67.20
2018-04-09T20:17:36.187Z,69.00
2018-04-09T20:20:04.871Z,72.17
2018-04-09T20:22:33.093Z,72.50
2018-04-09T20:25:02.757Z,74.27
2018-04-09T20:27:30.982Z,67.10
2018-04-09T20:29:59.617Z,73.50
2018-04-09T20:32:27.914Z,76.77
2018-04-09T20:34:56.077Z,70.07
2018-04-09T20:37:24.804Z,73.43
2018-04-09T20:39:53.029Z,69.30
2018-04-09T20:42:21.201Z,71.17
2018-04-09T20:44:49.384Z,67.27
2018-04-09T20:47:17.630Z,78.63
2018-04-09T20:49:45.853Z,65.50
2018-04-09T20:52:14.062Z,73.70
2018-04-09T20:54:42.228Z,70.50
2018-04-09T20:57:10.430Z,65.77
2018-04-09T20:59:39.365Z,69.40
2018-04-09T21:02:08.310Z,73.97
2018-04-09T21:04:36.683Z,71.63
2018-04-09T21:07:05.235Z,74.40
2018-04-09T21:09:34.273Z,69.10
2018-04-09T21:12:02.400Z,76.73
2018-04-09T21:14:31.330Z,73.23
2018-04-09T21:17:02.957Z,75.63
2018-04-09T21:19:31.295Z,70.47
2018-04-09T21:21:59.437Z,72.73
2018-04-09T21:24:27.677Z,73.50
2018-04-09T21:26:55.830Z,77.93
2018-04-09T21:29:24.098Z,76.70
2018-04-09T21:31:52.255Z,78.40
2018-04-09T21:34:20.454Z,75.67
2018-04-09T21:36:49.690Z,70.23
2018-04-09T21:39:17.864Z,70.67
2018-04-09T21:41:46.035Z,72.00
2018-04-09T21:44:14.173Z,72.50
2018-04-09T21:46:42.418Z,74.53
2018-04-09T21:49:10.577Z,72.20
2018-04-09T21:51:38.738Z,73.80
2018-04-09T21:54:06.897Z,75.27
2018-04-09T21:56:35.085Z,68.70
2018-04-09T21:59:03.320Z,77.03
2018-04-09T22:01:31.462Z,74.63
2018-04-09T22:04:00.317Z,71.60
2018-04-09T22:06:28.502Z,71.70
2018-04-09T22:09:02.199Z,72.50
2018-04-09T22:11:31.258Z,69.60
2018-04-09T22:14:03.219Z,68.90
2018-04-09T22:16:32.311Z,70.67
2018-04-09T22:19:00.460Z,70.73
2018-04-09T22:21:43.913Z,70.30
2018-04-09T22:24:12.049Z,68.40
2018-04-09T22:26:41.056Z,75.57
2018-04-09T22:29:10.247Z,72.30
2018-04-09T22:31:58.273Z,68.27
2018-04-09T22:34:26.425Z,71.63
2018-04-09T22:37:07.580Z,72.50
2018-04-09T22:42:28.091Z,70.43
2018-04-09T22:44:58.046Z,69.63
2018-04-09T22:47:26.324Z,76.50
2018-04-09T22:49:54.473Z,68.37
2018-04-09T22:52:22.700Z,66.27
2018-04-09T22:54:51.629Z,72.50
2018-04-09T23:00:13.884Z,73.23
2018-04-09T23:02:49.904Z,74.10
2018-04-09T23:05:24.998Z,74.53
2018-04-09T23:08:15.151Z,71.80
2018-04-09T23:10:43.405Z,72.70
2018-04-09T23:13:13.256Z,80.37
2018-04-09T23:15:55.214Z,72.80
2018-04-09T23:18:23.288Z,67.90
2018-04-09T23:20:51.450Z,71.87
2018-04-09T23:23:20.371Z,72.40
2018-04-09T23:26:06.462Z,77.20
2018-04-09T23:28:59.593Z,73.07
2018-04-09T23:31:31.442Z,72.40
2018-04-09T23:33:59.603Z,70.67
2018-04-09T23:36:27.797Z,72.87
2018-04-09T23:39:27.896Z,70.47
2018-04-09T23:41:57.934Z,75.00
2018-04-09T23:44:26.866Z,71.37
2018-04-09T23:46:55.009Z,75.10
2018-04-09T23:52:23.460Z,74.13
2018-04-09T23:55:08.714Z,79.37
2018-04-09T23:57:36.901Z,67.60
